Time;durP1;ratioP1;P1;durP2;ratioP2;P2;SDS_P1;SDS_P2;PMS_P1;PMS_P2;Temp;Humidity;BMP_temperature;BMP_pressure;BME280_temperature;BME280_humidity;BME280_pressure;Samples;Min_cycle;Max_cycle;Signal;HPM_P1;HPM_P2
2024/01/02 00:01:39;;;;;;;143.00;56.38;;;;;;;9.64;nan;99212.09;4820747;29;20144;-65
2024/01/02 00:04:08;;;;;;;148.77;57.50;;;;;;;9.66;nan;99210.09;4811855;29;20089;-65
2024/01/02 00:06:38;;;;;;;157.82;57.55;;;;;;;9.90;nan;99206.47;4824555;29;20046;-66
2024/01/02 00:09:07;;;;;;;145.77;58.22;;;;;;;9.83;nan;99210.81;4818427;29;20054;-67
2024/01/02 00:11:36;;;;;;;160.90;57.13;;;;;;;9.75;nan;99206.41;4818916;29;20050;-66
2024/01/02 00:14:06;;;;;;;146.07;58.15;;;;;;;9.80;nan;99209.34;4820260;29;20614;-69
2024/01/02 00:16:35;;;;;;;159.15;60.88;;;;;;;9.69;nan;99211.56;4831489;29;20099;-66
2024/01/02 00:19:05;;;;;;;139.07;56.80;;;;;;;9.66;nan;99214.53;4819802;29;20235;-67
2024/01/02 00:21:34;;;;;;;142.20;59.72;;;;;;;9.69;nan;99212.38;4819602;29;20080;-67
2024/01/02 00:24:04;;;;;;;142.43;57.05;;;;;;;9.57;nan;99211.13;4819973;29;20050;-67
2024/01/02 00:26:34;;;;;;;136.98;53.30;;;;;;;9.67;nan;99217.03;4832705;29;20057;-67
2024/01/02 00:29:04;;;;;;;142.00;57.38;;;;;;;9.76;nan;99218.63;4835513;29;20593;-67
2024/01/02 00:31:33;;;;;;;144.00;59.83;;;;;;;9.62;nan;99216.72;4817016;29;20608;-66
2024/01/02 00:34:03;;;;;;;162.52;61.30;;;;;;;9.75;nan;99214.31;4826720;29;20056;-67
2024/01/02 00:36:32;;;;;;;155.38;60.85;;;;;;;9.61;nan;99215.06;4819320;29;20054;-64
2024/01/02 00:39:02;;;;;;;138.75;59.80;;;;;;;9.71;nan;99212.22;4834903;29;20074;-68
2024/01/02 00:41:32;;;;;;;157.77;58.70;;;;;;;10.12;nan;99215.41;4833089;29;20057;-66
2024/01/02 00:44:02;;;;;;;157.65;58.25;;;;;;;9.89;nan;99221.53;4811384;29;20096;-67
2024/01/02 00:46:32;;;;;;;161.85;61.38;;;;;;;9.89;nan;99229.47;4825727;29;20050;-66
2024/01/02 00:49:01;;;;;;;151.65;58.88;;;;;;;9.92;nan;99234.38;4834993;29;20062;-67
2024/01/02 00:51:30;;;;;;;141.20;56.35;;;;;;;9.85;nan;99233.44;4817218;29;20096;-67
2024/01/02 00:54:00;;;;;;;146.88;57.97;;;;;;;9.80;nan;99240.25;4825774;29;20105;-67
2024/01/02 00:56:29;;;;;;;148.15;57.58;;;;;;;9.76;nan;99242.44;4812118;29;20691;-67
2024/01/02 00:58:59;;;;;;;153.10;58.10;;;;;;;9.70;nan;99240.47;4814308;29;20050;-66
2024/01/02 01:01:29;;;;;;;140.10;57.30;;;;;;;9.73;nan;99245.44;4821767;29;20050;-67
2024/01/02 01:03:58;;;;;;;158.68;58.33;;;;;;;9.73;nan;99253.38;4816390;29;20067;-67
2024/01/02 01:06:28;;;;;;;150.93;57.47;;;;;;;9.68;nan;99252.22;4817714;29;20062;-66
2024/01/02 01:08:58;;;;;;;154.73;58.70;;;;;;;9.61;nan;99252.09;4815476;29;20085;-66
2024/01/02 01:11:28;;;;;;;158.75;59.08;;;;;;;9.70;nan;99253.69;4823631;29;20158;-67
2024/01/02 01:13:58;;;;;;;159.05;59.72;;;;;;;9.73;nan;99250.72;4816934;29;20061;-67
2024/01/02 01:16:28;;;;;;;163.02;59.20;;;;;;;9.81;nan;99263.91;4834316;29;20114;-66
2024/01/02 01:18:57;;;;;;;157.85;60.45;;;;;;;9.76;nan;99263.59;4818946;29;20475;-66
2024/01/02 01:21:27;;;;;;;166.80;61.22;;;;;;;9.77;nan;99259.13;4810545;29;20054;-66
2024/01/02 01:23:56;;;;;;;166.65;62.20;;;;;;;9.79;nan;99265.88;4824028;29;20050;-66
2024/01/02 01:26:25;;;;;;;151.82;59.10;;;;;;;9.73;nan;99260.47;4803101;29;20240;-66
2024/01/02 01:28:55;;;;;;;155.43;58.13;;;;;;;9.76;nan;99262.75;4814794;29;20057;-66
2024/01/02 01:31:24;;;;;;;158.80;58.40;;;;;;;9.77;nan;99264.41;4810533;29;20054;-66
2024/01/02 01:33:54;;;;;;;168.77;59.80;;;;;;;9.77;nan;99267.06;4820388;29;20107;-66
2024/01/02 01:36:23;;;;;;;153.52;59.47;;;;;;;9.76;nan;99263.59;4806226;29;20134;-66
2024/01/02 01:38:53;;;;;;;158.23;60.75;;;;;;;9.66;nan;99256.84;4816153;29;20046;-66
2024/01/02 01:41:22;;;;;;;183.40;63.47;;;;;;;9.45;nan;99268.03;4817009;29;20065;-66
2024/01/02 01:43:52;;;;;;;172.63;64.03;;;;;;;9.64;nan;99272.09;4816400;29;20046;-66
2024/01/02 01:46:23;;;;;;;185.82;65.90;;;;;;;9.83;nan;99269.00;4830696;29;20441;-66
2024/01/02 01:48:53;;;;;;;188.93;64.88;;;;;;;9.69;nan;99273.19;4815522;29;20140;-66
2024/01/02 01:51:23;;;;;;;184.85;68.07;;;;;;;9.86;nan;99273.97;4799491;29;20058;-67
2024/01/02 01:53:55;;;;;;;181.38;63.03;;;;;;;9.78;nan;99269.50;4817897;29;20151;-67
2024/01/02 01:56:24;;;;;;;174.77;62.60;;;;;;;9.77;nan;99280.28;4816342;29;20133;-67
2024/01/02 01:58:54;;;;;;;171.18;62.10;;;;;;;9.66;nan;99275.38;4814460;29;20123;-66
2024/01/02 02:01:28;;;;;;;168.48;58.60;;;;;;;9.63;nan;99281.00;4815990;29;20062;-67
2024/01/02 02:04:01;;;;;;;192.65;66.15;;;;;;;9.71;nan;99292.38;4819526;29;20190;-67
2024/01/02 02:06:30;;;;;;;187.70;63.88;;;;;;;9.87;nan;99289.63;4815343;29;20078;-67
2024/01/02 02:09:00;;;;;;;176.48;63.58;;;;;;;9.75;nan;99292.84;4815760;29;20133;-66
2024/01/02 02:11:30;;;;;;;189.52;67.35;;;;;;;9.70;nan;99290.72;4816585;29;20114;-66
2024/01/02 02:14:01;;;;;;;180.73;63.15;;;;;;;9.71;nan;99297.66;4814721;29;20188;-65
2024/01/02 02:16:31;;;;;;;200.90;68.82;;;;;;;9.85;nan;99291.66;4815814;29;20122;-66
2024/01/02 02:19:01;;;;;;;204.50;69.47;;;;;;;9.74;nan;99292.03;4822834;29;20043;-66
2024/01/02 02:21:32;;;;;;;202.05;65.57;;;;;;;9.72;nan;99295.84;4818604;29;20061;-65
2024/01/02 02:24:02;;;;;;;198.90;65.90;;;;;;;9.72;nan;99303.78;4814665;29;20058;-67
2024/01/02 02:26:31;;;;;;;207.23;67.38;;;;;;;9.70;nan;99297.81;4816569;29;20057;-66
2024/01/02 02:29:01;;;;;;;204.00;66.50;;;;;;;9.85;nan;99301.41;4814064;29;20058;-68
2024/01/02 02:31:30;;;;;;;205.95;67.32;;;;;;;9.75;nan;99301.63;4816471;29;20563;-68
2024/01/02 02:34:00;;;;;;;204.05;66.53;;;;;;;9.79;nan;99310.84;4809397;29;20065;-67
2024/01/02 02:36:30;;;;;;;202.27;68.93;;;;;;;9.75;nan;99303.44;4815030;29;20457;-68
2024/01/02 02:39:00;;;;;;;192.90;64.88;;;;;;;9.98;nan;99311.44;4815318;29;20048;-68
2024/01/02 02:41:29;;;;;;;198.55;64.93;;;;;;;9.77;nan;99312.84;4801810;29;20054;-68
2024/01/02 02:43:58;;;;;;;199.82;65.75;;;;;;;9.71;nan;99310.88;4815455;29;20047;-68
2024/01/02 02:46:28;;;;;;;187.32;63.65;;;;;;;9.64;nan;99309.94;4816899;29;20111;-68
2024/01/02 02:48:57;;;;;;;185.48;63.20;;;;;;;9.56;nan;99320.53;4824890;29;20148;-68
2024/01/02 02:51:27;;;;;;;199.95;65.18;;;;;;;9.58;nan;99323.84;4817114;29;20069;-68
2024/01/02 02:53:56;;;;;;;204.02;66.43;;;;;;;9.83;nan;99320.09;4820361;29;20058;-68
2024/01/02 02:56:26;;;;;;;196.38;67.50;;;;;;;9.88;nan;99317.75;4805288;29;20047;-68
2024/01/02 02:58:55;;;;;;;197.82;65.32;;;;;;;9.92;nan;99328.81;4815966;29;20050;-68
2024/01/02 03:01:24;;;;;;;200.13;64.97;;;;;;;9.71;nan;99336.50;4815480;29;20050;-69
2024/01/02 03:03:54;;;;;;;207.68;67.28;;;;;;;9.59;nan;99330.78;4817903;29;20061;-69
2024/01/02 03:06:24;;;;;;;199.95;64.53;;;;;;;9.76;nan;99331.53;4811493;29;20053;-68
2024/01/02 03:08:53;;;;;;;193.95;64.82;;;;;;;9.94;nan;99332.13;4815000;29;20134;-68
2024/01/02 03:11:23;;;;;;;189.20;63.70;;;;;;;9.93;nan;99338.41;4814998;29;20046;-68
2024/01/02 03:13:52;;;;;;;198.27;66.85;;;;;;;9.83;nan;99346.53;4826725;29;20065;-68
2024/01/02 03:16:24;;;;;;;183.35;61.67;;;;;;;9.75;nan;99357.16;4829378;29;20077;-68
2024/01/02 03:18:54;;;;;;;197.13;65.00;;;;;;;9.72;nan;99351.41;4820615;29;20057;-68
2024/01/02 03:21:27;;;;;;;179.95;61.35;;;;;;;9.66;nan;99366.13;4817108;29;20091;-67
2024/01/02 03:23:58;;;;;;;192.95;63.25;;;;;;;9.63;nan;99368.28;4810772;29;20502;-68
2024/01/02 03:26:28;;;;;;;166.77;61.95;;;;;;;9.97;nan;99368.81;4829156;29;20050;-68
2024/01/02 03:28:57;;;;;;;156.90;58.47;;;;;;;9.85;nan;99380.78;4837622;29;20053;-68
2024/01/02 03:31:26;;;;;;;161.43;60.60;;;;;;;10.04;nan;99383.00;4821595;29;20102;-69
2024/01/02 03:33:56;;;;;;;152.50;55.97;;;;;;;10.14;nan;99388.06;4830123;29;20050;-69
2024/01/02 03:36:30;;;;;;;160.23;58.83;;;;;;;9.97;nan;99395.28;4831629;29;20068;-68
2024/01/02 03:39:00;;;;;;;172.35;60.92;;;;;;;9.84;nan;99403.75;4812716;29;20054;-68
2024/01/02 03:41:29;;;;;;;169.93;59.90;;;;;;;9.72;nan;99401.66;4815182;29;20145;-69
2024/01/02 03:43:59;;;;;;;170.73;60.22;;;;;;;9.71;nan;99408.75;4826541;29;20133;-68
2024/01/02 03:46:28;;;;;;;188.38;61.45;;;;;;;10.01;nan;99414.25;4817380;29;20061;-68
2024/01/02 03:48:57;;;;;;;170.45;60.75;;;;;;;10.02;nan;99422.03;4816832;29;20096;-69
2024/01/02 03:51:27;;;;;;;161.25;59.38;;;;;;;10.16;nan;99425.81;4818217;29;20425;-69
2024/01/02 03:53:56;;;;;;;154.52;57.80;;;;;;;9.98;nan;99427.84;4824283;29;20042;-69
2024/01/02 03:56:26;;;;;;;180.60;62.47;;;;;;;9.92;nan;99426.69;4830404;29;20050;-69
2024/01/02 03:58:55;;;;;;;165.30;60.08;;;;;;;10.15;nan;99430.28;4820105;29;20156;-68
2024/01/02 04:01:25;;;;;;;169.88;61.55;;;;;;;10.03;nan;99431.63;4815869;29;20042;-69
2024/01/02 04:03:54;;;;;;;156.77;56.50;;;;;;;10.04;nan;99435.13;4822276;29;20782;-69
2024/01/02 04:06:31;;;;;;;160.90;58.30;;;;;;;10.10;nan;99440.53;4814473;29;20192;-68
2024/01/02 04:09:00;;;;;;;156.32;57.45;;;;;;;10.16;nan;99447.00;4832453;29;20388;-68
2024/01/02 04:11:29;;;;;;;163.60;58.03;;;;;;;9.92;nan;99453.16;4814740;29;20149;-66
2024/01/02 04:13:59;;;;;;;157.50;57.97;;;;;;;10.10;nan;99456.41;4818917;29;20559;-66
2024/01/02 04:16:28;;;;;;;153.40;57.15;;;;;;;10.17;nan;99461.91;4823628;29;20436;-67
2024/01/02 04:18:58;;;;;;;165.02;59.53;;;;;;;10.21;nan;99466.69;4818210;29;20133;-67
2024/01/02 04:21:27;;;;;;;163.82;60.13;;;;;;;10.22;nan;99465.66;4815661;29;20058;-67
2024/01/02 04:23:57;;;;;;;164.55;56.05;;;;;;;10.19;nan;99466.00;4821979;29;20111;-67
2024/01/02 04:26:26;;;;;;;156.57;58.38;;;;;;;10.33;nan;99473.25;4818957;29;20086;-67
2024/01/02 04:28:55;;;;;;;162.77;58.13;;;;;;;10.44;nan;99477.34;4828877;29;20051;-66
2024/01/02 04:31:25;;;;;;;181.00;61.55;;;;;;;10.16;nan;99470.81;4817416;29;20388;-67
2024/01/02 04:33:54;;;;;;;164.27;59.97;;;;;;;10.22;nan;99472.81;4819359;29;20078;-67
2024/01/02 04:36:27;;;;;;;169.90;60.33;;;;;;;10.22;nan;99476.25;4821432;29;20666;-68
2024/01/02 04:38:57;;;;;;;163.30;61.17;;;;;;;10.06;nan;99472.81;4816153;29;20476;-69
2024/01/02 04:41:27;;;;;;;165.90;59.88;;;;;;;10.29;nan;99479.88;4815930;29;20078;-67
2024/01/02 04:43:56;;;;;;;167.77;61.75;;;;;;;10.25;nan;99478.56;4818372;29;20053;-69
2024/01/02 04:46:29;;;;;;;161.90;57.55;;;;;;;10.43;nan;99498.69;4817518;29;20484;-68
2024/01/02 04:48:58;;;;;;;174.13;60.67;;;;;;;10.14;nan;99504.53;4816746;29;20129;-68
2024/01/02 04:51:28;;;;;;;188.68;64.43;;;;;;;10.17;nan;99486.53;4812696;29;20417;-68
2024/01/02 04:53:58;;;;;;;177.80;63.28;;;;;;;10.36;nan;99493.25;4815346;29;20047;-67
2024/01/02 04:56:27;;;;;;;171.25;60.28;;;;;;;10.39;nan;99487.63;4815367;29;20512;-68
2024/01/02 04:58:57;;;;;;;170.52;63.20;;;;;;;10.73;nan;99488.09;4816201;29;20046;-69
2024/01/02 05:01:27;;;;;;;169.35;61.42;;;;;;;10.70;nan;99491.13;4814154;29;20069;-68
2024/01/02 05:03:57;;;;;;;177.75;65.07;;;;;;;10.58;nan;99492.47;4813620;29;20106;-68
2024/01/02 05:06:26;;;;;;;171.38;61.80;;;;;;;10.42;nan;99491.72;4811694;29;20080;-68
2024/01/02 05:08:56;;;;;;;165.95;61.00;;;;;;;10.77;nan;99489.41;4816037;29;20066;-68
2024/01/02 05:11:25;;;;;;;174.75;62.75;;;;;;;10.60;nan;99487.84;4810912;29;20575;-67
2024/01/02 05:13:55;;;;;;;194.52;69.00;;;;;;;10.63;nan;99482.19;4818480;29;20050;-68
2024/01/02 05:16:25;;;;;;;178.57;61.72;;;;;;;10.62;nan;99491.13;4812952;29;20058;-68
2024/01/02 05:18:55;;;;;;;177.02;64.00;;;;;;;10.62;nan;99479.75;4813497;29;20053;-68
2024/01/02 05:21:24;;;;;;;183.45;63.80;;;;;;;10.80;nan;99478.44;4812733;29;20061;-68
2024/01/02 05:23:54;;;;;;;185.23;66.95;;;;;;;10.64;nan;99470.59;4815594;29;20820;-68
2024/01/02 05:26:23;;;;;;;186.43;64.88;;;;;;;10.65;nan;99468.78;4812385;29;20452;-68
2024/01/02 05:28:53;;;;;;;177.63;65.15;;;;;;;10.82;nan;99476.47;4815596;29;20051;-69
2024/01/02 05:31:22;;;;;;;177.73;65.00;;;;;;;10.45;nan;99478.97;4811176;29;20073;-68
2024/01/02 05:33:51;;;;;;;188.45;65.88;;;;;;;10.62;nan;99466.50;4818421;29;20050;-68
2024/01/02 05:36:21;;;;;;;182.05;61.95;;;;;;;10.64;nan;99475.91;4824580;29;20504;-67
2024/01/02 05:38:50;;;;;;;194.80;66.00;;;;;;;10.82;nan;99476.47;4812136;29;20057;-68
2024/01/02 05:41:20;;;;;;;199.05;67.22;;;;;;;10.83;nan;99472.00;4809876;29;20057;-68
2024/01/02 05:43:49;;;;;;;197.93;67.30;;;;;;;10.84;nan;99470.16;4812087;29;20054;-69
2024/01/02 05:46:19;;;;;;;197.90;68.47;;;;;;;10.90;nan;99464.97;4795344;29;20061;-68
2024/01/02 05:48:48;;;;;;;198.93;65.53;;;;;;;10.86;nan;99457.56;4812956;29;20061;-68
2024/01/02 05:51:21;;;;;;;207.32;69.50;;;;;;;10.95;nan;99457.34;4813890;29;20134;-67
2024/01/02 05:53:50;;;;;;;200.23;69.28;;;;;;;11.10;nan;99455.56;4813362;29;20050;-67
2024/01/02 05:56:20;;;;;;;214.70;72.15;;;;;;;10.91;nan;99445.44;4814923;29;20054;-68
2024/01/02 05:58:49;;;;;;;205.27;70.85;;;;;;;10.94;nan;99446.91;4829072;29;20499;-69
2024/01/02 06:01:19;;;;;;;197.20;70.55;;;;;;;10.98;nan;99438.41;4815889;29;20068;-67
2024/01/02 06:03:49;;;;;;;206.57;70.72;;;;;;;10.96;nan;99436.97;4812679;29;20214;-68
2024/01/02 06:06:18;;;;;;;205.35;68.57;;;;;;;11.13;nan;99427.88;4815442;29;20120;-68
2024/01/02 06:08:48;;;;;;;214.57;71.82;;;;;;;10.95;nan;99427.34;4814071;29;20410;-68
2024/01/02 06:11:18;;;;;;;195.13;67.78;;;;;;;11.02;nan;99423.81;4810012;29;20149;-69
2024/01/02 06:13:47;;;;;;;215.23;73.07;;;;;;;11.04;nan;99413.03;4817626;29;20114;-67
2024/01/02 06:16:16;;;;;;;232.63;77.38;;;;;;;11.03;nan;99414.84;4811697;29;20058;-68
2024/01/02 06:18:46;;;;;;;219.63;75.78;;;;;;;11.10;nan;99407.88;4810806;29;20078;-67
2024/01/02 06:21:16;;;;;;;209.05;75.38;;;;;;;11.36;nan;99396.84;4813776;29;20096;-66
2024/01/02 06:23:45;;;;;;;230.73;77.05;;;;;;;11.09;nan;99394.78;4811318;29;20634;-65
2024/01/02 06:26:20;;;;;;;221.18;75.93;;;;;;;11.33;nan;99394.53;4813863;29;20141;-66
2024/01/02 06:28:50;;;;;;;232.95;77.55;;;;;;;11.52;nan;99385.25;4812523;29;20153;-67
2024/01/02 06:31:20;;;;;;;226.02;78.07;;;;;;;11.60;nan;99383.34;4813581;29;20203;-68
2024/01/02 06:33:51;;;;;;;251.63;82.35;;;;;;;11.25;nan;99376.06;4814891;29;20062;-67
2024/01/02 06:36:20;;;;;;;226.45;76.15;;;;;;;11.60;nan;99382.50;4815444;29;20054;-67
2024/01/02 06:38:50;;;;;;;244.02;77.47;;;;;;;11.53;nan;99371.00;4812899;29;20277;-68
2024/01/02 06:41:20;;;;;;;230.52;76.85;;;;;;;11.42;nan;99374.91;4814958;29;20058;-65
2024/01/02 06:43:49;;;;;;;232.95;78.72;;;;;;;11.41;nan;99365.31;4811174;29;20076;-67
2024/01/02 06:46:19;;;;;;;227.70;79.72;;;;;;;11.45;nan;99356.00;4813237;29;20092;-66
2024/01/02 06:48:52;;;;;;;245.13;80.13;;;;;;;11.40;nan;99345.09;4812086;29;20511;-68
2024/01/02 06:51:22;;;;;;;252.93;79.88;;;;;;;11.51;nan;99343.81;4810509;29;20138;-66
2024/01/02 06:53:51;;;;;;;224.60;74.45;;;;;;;11.47;nan;99346.00;4819043;29;20061;-66
2024/01/02 06:56:21;;;;;;;247.38;79.45;;;;;;;11.78;nan;99340.53;4816876;29;20050;-66
2024/01/02 06:58:51;;;;;;;266.65;85.65;;;;;;;11.74;nan;99341.09;4815876;29;20145;-66
2024/01/02 07:01:20;;;;;;;264.08;83.85;;;;;;;11.44;nan;99337.59;4817056;29;20053;-67
2024/01/02 07:03:50;;;;;;;250.38;82.22;;;;;;;11.64;nan;99339.50;4817782;29;20058;-66
2024/01/02 07:06:20;;;;;;;264.70;86.07;;;;;;;11.83;nan;99334.69;4815351;29;20055;-66
2024/01/02 07:08:49;;;;;;;280.52;87.72;;;;;;;11.79;nan;99333.41;4817634;29;20231;-67
2024/01/02 07:11:19;;;;;;;265.55;86.22;;;;;;;11.96;nan;99337.50;4817989;29;20062;-66
2024/01/02 07:13:48;;;;;;;266.23;83.57;;;;;;;12.05;nan;99329.25;4818503;29;20049;-67
2024/01/02 07:16:18;;;;;;;253.40;83.25;;;;;;;12.00;nan;99323.66;4816412;29;20843;-67
2024/01/02 07:18:48;;;;;;;240.70;81.20;;;;;;;11.73;nan;99315.59;4817501;29;20054;-66
2024/01/02 07:21:18;;;;;;;260.40;83.50;;;;;;;11.92;nan;99317.66;4815095;29;20046;-66
2024/01/02 07:23:47;;;;;;;263.92;89.90;;;;;;;11.97;nan;99310.78;4818556;29;20061;-66
2024/01/02 07:26:17;;;;;;;255.90;81.95;;;;;;;11.90;nan;99309.88;4818446;29;20122;-67
2024/01/02 07:28:46;;;;;;;257.40;85.72;;;;;;;11.86;nan;99302.47;4819812;29;20054;-68
2024/01/02 07:31:15;;;;;;;247.77;89.20;;;;;;;11.80;nan;99303.22;4813887;29;20054;-68
2024/01/02 07:33:45;;;;;;;255.63;83.75;;;;;;;11.88;nan;99300.44;4814180;29;20058;-68
2024/01/02 07:36:18;;;;;;;;;;;;;;;11.71;nan;99305.13;4814917;29;20069;-68
2024/01/02 07:38:47;;;;;;;234.65;80.05;;;;;;;11.90;nan;99301.09;4814890;29;19929;-70
2024/01/02 07:41:17;;;;;;;240.35;82.38;;;;;;;11.94;nan;99297.88;4800671;29;20051;-68
2024/01/02 07:43:47;;;;;;;251.30;88.43;;;;;;;12.04;nan;99293.09;4814571;29;20057;-69
2024/01/02 07:46:17;;;;;;;254.45;88.18;;;;;;;11.51;nan;99290.75;4814548;29;20055;-69
2024/01/02 07:48:46;;;;;;;269.15;92.85;;;;;;;11.82;nan;99286.09;4818105;29;20140;-68
2024/01/02 07:51:16;;;;;;;274.58;100.38;;;;;;;12.11;nan;99280.72;4813021;29;20058;-67
2024/01/02 07:53:46;;;;;;;273.45;101.20;;;;;;;11.91;nan;99273.53;4820293;29;20162;-68
2024/01/02 07:56:19;;;;;;;270.55;98.70;;;;;;;11.75;nan;99281.72;4828964;29;20065;-69
2024/01/02 07:58:49;;;;;;;267.27;97.88;;;;;;;11.90;nan;99263.94;4815638;29;20511;-69
2024/01/02 08:01:18;;;;;;;262.85;98.10;;;;;;;12.05;nan;99265.53;4814697;29;20134;-69
2024/01/02 08:03:48;;;;;;;260.15;99.20;;;;;;;12.02;nan;99260.59;4818333;29;20078;-68
2024/01/02 08:06:18;;;;;;;262.33;98.47;;;;;;;11.91;nan;99258.44;4816996;29;20343;-69
2024/01/02 08:08:47;;;;;;;274.55;101.90;;;;;;;11.92;nan;99253.94;4812633;29;20062;-68
2024/01/02 08:11:18;;;;;;;259.08;99.20;;;;;;;11.95;nan;99248.28;4812198;29;20125;-67
2024/01/02 08:13:48;;;;;;;265.27;99.82;;;;;;;11.86;nan;99252.84;4812141;29;20055;-67
2024/01/02 08:16:17;;;;;;;269.50;102.25;;;;;;;11.89;nan;99249.84;4808181;29;20058;-69
2024/01/02 08:18:47;;;;;;;268.10;100.22;;;;;;;11.80;nan;99245.66;4811776;29;20118;-69
2024/01/02 08:21:17;;;;;;;273.48;103.05;;;;;;;11.69;nan;99246.91;4807978;29;20054;-68
2024/01/02 08:23:47;;;;;;;270.88;101.03;;;;;;;11.90;nan;99245.38;4811241;29;20488;-66
2024/01/02 08:26:17;;;;;;;270.52;101.72;;;;;;;11.79;nan;99248.50;4808491;29;20054;-68
2024/01/02 08:28:47;;;;;;;291.50;104.20;;;;;;;11.85;nan;99239.78;4810548;29;20074;-69
2024/01/02 08:31:17;;;;;;;270.23;101.63;;;;;;;11.89;nan;99241.06;4810018;29;20783;-69
2024/01/02 08:33:46;;;;;;;274.40;103.60;;;;;;;11.98;nan;99240.75;4811939;29;20550;-69
2024/01/02 08:36:17;;;;;;;277.05;100.32;;;;;;;12.22;nan;99228.09;4812606;29;20452;-69
2024/01/02 08:38:47;;;;;;;281.23;103.50;;;;;;;12.15;nan;99231.53;4807437;29;20046;-67
2024/01/02 08:41:21;;;;;;;275.58;101.85;;;;;;;12.04;nan;99239.16;4812295;29;20161;-68
2024/01/02 08:43:51;;;;;;;284.02;103.57;;;;;;;11.71;nan;99231.66;4812950;29;20063;-67
2024/01/02 08:46:20;;;;;;;276.27;102.63;;;;;;;12.05;nan;99233.66;4811687;29;20195;-66
2024/01/02 08:48:49;;;;;;;272.98;99.18;;;;;;;12.13;nan;99240.69;4815225;29;20110;-66
2024/01/02 08:51:19;;;;;;;277.20;103.93;;;;;;;11.76;nan;99230.28;4806357;29;20180;-67
2024/01/02 08:53:48;;;;;;;290.40;102.95;;;;;;;11.83;nan;99234.66;4809627;29;20050;-68
2024/01/02 08:56:18;;;;;;;268.83;102.22;;;;;;;11.94;nan;99230.69;4809483;29;20426;-66
2024/01/02 08:58:47;;;;;;;272.70;101.32;;;;;;;12.06;nan;99226.53;4809685;29;20180;-67
2024/01/02 09:01:18;;;;;;;290.80;106.50;;;;;;;11.95;nan;99221.75;4811041;29;20055;-65
2024/01/02 09:03:47;;;;;;;266.33;100.95;;;;;;;11.99;nan;99220.34;4811835;29;20142;-67
2024/01/02 09:06:20;;;;;;;266.38;98.78;;;;;;;12.06;nan;99216.75;4794532;29;20062;-67
2024/01/02 09:08:51;;;;;;;266.92;97.53;;;;;;;11.90;nan;99214.34;4803439;29;20053;-65
2024/01/02 09:11:22;;;;;;;253.68;98.15;;;;;;;11.93;nan;99218.44;4807529;29;20062;-71
2024/01/02 09:13:54;;;;;;;270.27;98.50;;;;;;;12.00;nan;99216.66;4814823;29;20061;-69
2024/01/02 09:16:32;;;;;;;259.48;98.50;;;;;;;11.87;nan;99205.91;4815750;29;20092;-70
2024/01/02 09:19:02;;;;;;;266.40;98.05;;;;;;;11.91;nan;99193.91;4804275;29;20058;-68
2024/01/02 09:21:32;;;;;;;254.13;95.18;;;;;;;11.96;nan;99197.63;4814137;29;20062;-67
2024/01/02 09:24:02;;;;;;;261.63;95.07;;;;;;;11.80;nan;99186.44;4811877;29;20054;-67
2024/01/02 09:26:33;;;;;;;260.38;93.50;;;;;;;11.83;nan;99186.88;4836776;29;20600;-68
2024/01/02 09:29:02;;;;;;;258.77;94.57;;;;;;;11.85;nan;99194.69;4805137;29;20492;-68
2024/01/02 09:31:32;;;;;;;262.52;97.40;;;;;;;12.02;nan;99183.63;4807507;29;20479;-73
2024/01/02 09:34:04;;;;;;;256.48;97.93;;;;;;;11.93;nan;99181.28;4815131;29;20064;-73
2024/01/02 09:36:34;;;;;;;259.30;95.32;;;;;;;12.09;nan;99176.53;4808327;29;20050;-68
2024/01/02 09:39:04;;;;;;;243.20;91.63;;;;;;;12.11;nan;99169.22;4806360;29;22019;-68
2024/01/02 09:41:38;;;;;;;246.45;88.35;;;;;;;12.27;nan;99173.41;4790104;29;20058;-67
2024/01/02 09:44:19;;;;;;;248.70;92.88;;;;;;;12.08;nan;99174.88;4809243;29;20069;-67
2024/01/02 09:47:10;;;;;;;245.45;91.68;;;;;;;12.30;nan;99161.59;4810218;29;20047;-68
2024/01/02 09:49:54;;;;;;;233.63;89.55;;;;;;;12.18;nan;99165.78;4811481;29;20061;-67
2024/01/02 09:52:55;;;;;;;230.48;89.88;;;;;;;11.94;nan;99162.53;4813701;29;20118;-67
2024/01/02 09:55:52;;;;;;;242.30;88.72;;;;;;;12.06;nan;99150.38;4812870;29;20050;-67
2024/01/02 09:58:47;;;;;;;233.48;88.05;;;;;;;11.88;nan;99141.22;4808997;29;20153;-67
2024/01/02 10:01:28;;;;;;;234.00;89.75;;;;;;;11.89;nan;99142.84;4808746;29;20057;-68
2024/01/02 10:04:30;;;;;;;245.15;92.65;;;;;;;11.88;nan;99144.69;4813117;29;20054;-68
2024/01/02 10:07:43;;;;;;;244.10;89.38;;;;;;;11.87;nan;99136.91;4798845;29;20111;-68
2024/01/02 10:10:50;;;;;;;226.32;89.40;;;;;;;12.12;nan;99130.22;4809953;29;20058;-68
2024/01/02 10:13:38;;;;;;;236.23;85.30;;;;;;;11.98;nan;99131.94;4797498;29;20066;-67
2024/01/02 10:16:23;;;;;;;234.85;88.78;;;;;;;12.05;nan;99124.81;4815194;29;20053;-67
2024/01/02 10:19:08;;;;;;;223.15;84.97;;;;;;;12.01;nan;99136.03;4809096;29;20712;-67
2024/01/02 10:21:42;;;;;;;251.32;89.78;;;;;;;12.02;nan;99127.88;4808779;29;20202;-68
2024/01/02 10:24:45;;;;;;;230.48;86.57;;;;;;;12.00;nan;99116.59;4812249;29;20562;-67
2024/01/02 10:27:30;;;;;;;214.63;86.13;;;;;;;12.03;nan;99121.56;4812349;29;20153;-69
2024/01/02 10:30:06;;;;;;;230.68;90.05;;;;;;;11.84;nan;99126.69;4809510;29;20050;-69
2024/01/02 10:33:13;;;;;;;230.23;86.57;;;;;;;11.88;nan;99128.75;4805872;29;20518;-67
2024/01/02 10:35:53;;;;;;;227.40;86.28;;;;;;;12.22;nan;99130.69;4792504;29;20055;-68
2024/01/02 10:38:24;;;;;;;228.52;85.75;;;;;;;12.28;nan;99121.94;4804696;29;20062;-69
2024/01/02 10:41:17;;;;;;;237.63;90.28;;;;;;;12.12;nan;99127.56;4807441;29;20050;-71
2024/01/02 10:44:22;;;;;;;223.05;85.60;;;;;;;11.91;nan;99120.41;4810388;29;20118;-71
2024/01/02 10:47:01;;;;;;;227.70;84.28;;;;;;;11.68;nan;99114.47;4808115;29;20531;-69
2024/01/02 10:49:35;;;;;;;228.35;85.78;;;;;;;11.82;nan;99123.38;4808954;29;20074;-71
2024/01/02 10:52:27;;;;;;;225.13;88.15;;;;;;;11.80;nan;99117.47;4811003;29;20558;-72
2024/01/02 11:57:54;;;;;;;239.13;93.63;;;;;;;11.15;nan;99127.13;5056182;27;20526;-73
2024/01/02 12:00:33;;;;;;;244.23;92.90;;;;;;;11.35;nan;99124.72;5032209;28;20067;-70
2024/01/02 12:03:49;;;;;;;248.45;93.55;;;;;;;11.42;nan;99130.91;5047344;28;20059;-71
2024/01/02 12:06:32;;;;;;;255.75;92.53;;;;;;;11.22;nan;99121.91;5005259;28;20060;-73
2024/01/02 12:09:10;;;;;;;243.45;92.15;;;;;;;11.42;nan;99125.59;5035958;28;20681;-73
2024/01/02 12:12:04;;;;;;;240.18;92.32;;;;;;;11.22;nan;99127.22;5042767;28;20047;-73
2024/01/02 12:14:36;;;;;;;247.02;92.07;;;;;;;11.16;nan;99127.94;5047245;28;20045;-69
2024/01/02 12:17:11;;;;;;;261.37;100.50;;;;;;;11.31;nan;99133.22;5039707;28;20102;-70
2024/01/02 12:19:52;;;;;;;256.05;95.45;;;;;;;11.34;nan;99127.53;5038935;28;20274;-69
2024/01/02 12:22:23;;;;;;;249.48;98.38;;;;;;;11.31;nan;99130.56;4990410;28;20045;-69
2024/01/02 12:24:53;;;;;;;246.77;92.93;;;;;;;11.15;nan;99121.81;5028505;28;20150;-69
2024/01/02 12:27:27;;;;;;;245.32;94.65;;;;;;;11.28;nan;99129.13;5039477;28;20076;-68
2024/01/02 12:30:02;;;;;;;254.77;94.72;;;;;;;11.31;nan;99126.09;5038523;28;20048;-69
2024/01/02 12:32:53;;;;;;;251.13;94.43;;;;;;;11.33;nan;99126.72;5039403;28;20045;-68
2024/01/02 12:35:38;;;;;;;250.82;96.85;;;;;;;11.25;nan;99125.00;5037016;28;20041;-69
2024/01/02 12:38:18;;;;;;;248.55;96.43;;;;;;;11.23;nan;99123.56;5037437;28;20045;-69
2024/01/02 12:40:53;;;;;;;254.80;95.05;;;;;;;11.19;nan;99133.72;5035901;28;20045;-69
2024/01/02 12:43:29;;;;;;;252.27;97.20;;;;;;;11.17;nan;99140.19;5034727;28;20041;-69
2024/01/02 12:46:05;;;;;;;248.10;94.55;;;;;;;11.40;nan;99138.25;5027717;28;20056;-70
2024/01/02 12:48:42;;;;;;;252.70;97.35;;;;;;;11.41;nan;99137.25;5040491;28;20122;-68
2024/01/02 12:51:12;;;;;;;250.88;98.35;;;;;;;11.45;nan;99143.81;5048106;28;20447;-68
2024/01/02 12:53:43;;;;;;;253.70;97.13;;;;;;;11.15;nan;99152.84;5041077;28;20049;-69